Time;durP1;ratioP1;P1;durP2;ratioP2;P2;SDS_P1;SDS_P2;PMS_P1;PMS_P2;Temp;Humidity;BMP_temperature;BMP_pressure;BME280_temperature;BME280_humidity;BME280_pressure;Samples;Min_cycle;Max_cycle;Signal;HPM_P1;HPM_P2
2022/10/21 00:00:11;;;;;;;8.00;2.90;;;18.00;63.10;;;;;;5043023;28;20208;-85
2022/10/21 00:02:36;;;;;;;7.40;3.13;;;18.00;63.20;;;;;;5060933;28;20184;-83
2022/10/21 00:05:03;;;;;;;4.23;2.70;;;18.00;62.00;;;;;;5060814;28;20215;-82
2022/10/21 00:07:28;;;;;;;4.70;2.80;;;17.90;60.10;;;;;;5059996;28;20193;-85
2022/10/21 00:09:54;;;;;;;7.03;3.37;;;17.90;59.20;;;;;;5059295;28;20164;-84
2022/10/21 00:12:20;;;;;;;7.40;3.53;;;17.90;57.20;;;;;;5060644;28;20160;-84
2022/10/21 00:14:46;;;;;;;4.27;2.70;;;17.90;56.90;;;;;;5044945;28;20183;-86
2022/10/21 00:17:12;;;;;;;7.57;2.50;;;17.80;58.10;;;;;;5044631;28;20219;-83
2022/10/21 00:19:38;;;;;;;6.57;2.77;;;17.80;58.20;;;;;;5044244;28;20185;-84
2022/10/21 00:22:04;;;;;;;6.20;3.10;;;17.70;57.70;;;;;;5065805;28;20186;-84
2022/10/21 00:24:30;;;;;;;5.70;3.00;;;17.70;58.80;;;;;;5051861;28;20197;-84
2022/10/21 00:27:01;;;;;;;7.13;2.67;;;17.80;58.40;;;;;;5056544;28;20164;-84
2022/10/21 00:29:33;;;;;;;8.73;2.73;;;17.80;56.70;;;;;;5068420;28;20169;-84
2022/10/21 00:32:02;;;;;;;4.93;2.30;;;17.80;55.00;;;;;;5053266;28;20195;-84
2022/10/21 00:34:31;;;;;;;6.77;2.47;;;17.80;52.60;;;;;;5069798;28;20654;-86
2022/10/21 00:36:58;;;;;;;4.57;2.33;;;17.80;51.30;;;;;;5041718;28;20599;-84
2022/10/21 00:39:23;;;;;;;5.83;2.30;;;17.60;52.30;;;;;;5041825;28;20184;-86
2022/10/21 00:41:51;;;;;;;5.17;2.40;;;17.60;53.50;;;;;;5059331;28;20157;-84
2022/10/21 00:44:17;;;;;;;7.07;2.27;;;17.70;51.00;;;;;;5042329;28;20618;-86
2022/10/21 00:47:02;;;;;;;7.30;2.47;;;17.70;50.70;;;;;;5061793;28;20201;-85
2022/10/21 00:49:42;;;;;;;3.97;1.93;;;17.70;48.60;;;;;;5064583;28;20159;-84
2022/10/21 00:52:16;;;;;;;4.67;2.10;;;17.80;46.10;;;;;;5063648;28;20201;-84
2022/10/21 00:54:43;;;;;;;5.33;1.70;;;17.60;43.30;;;;;;5075800;28;20167;-85
2022/10/21 00:57:53;;;;;;;5.73;2.10;;;17.80;43.60;;;;;;5068874;28;20173;-85
2022/10/21 01:00:32;;;;;;;4.50;2.10;;;17.70;44.10;;;;;;5043413;28;20197;-87
2022/10/21 01:02:58;;;;;;;5.47;2.00;;;17.70;43.90;;;;;;5059170;28;20199;-85
2022/10/21 01:05:25;;;;;;;3.53;1.80;;;17.60;46.50;;;;;;5040747;28;20239;-86
2022/10/21 01:07:51;;;;;;;2.97;1.93;;;17.40;48.80;;;;;;5057103;28;20164;-84
2022/10/21 01:10:17;;;;;;;7.47;1.90;;;17.40;50.70;;;;;;5039141;28;20644;-85
2022/10/21 01:13:05;;;;;;;3.63;1.97;;;17.30;52.50;;;;;;5056507;28;20188;-85
2022/10/21 01:15:45;;;;;;;5.37;1.83;;;17.40;50.80;;;;;;5039286;28;20526;-85
2022/10/21 01:18:26;;;;;;;5.17;1.90;;;17.30;52.20;;;;;;5041717;28;20166;-85
2022/10/21 01:21:31;;;;;;;4.43;2.20;;;17.30;53.60;;;;;;5041688;28;20226;-86
2022/10/21 01:23:58;;;;;;;5.10;1.77;;;17.40;51.40;;;;;;5044810;28;20191;-86
2022/10/21 01:26:41;;;;;;;4.30;1.90;;;17.40;51.20;;;;;;5062593;28;20216;-84
2022/10/21 01:29:31;;;;;;;3.53;1.67;;;17.40;48.40;;;;;;5042389;28;20200;-85
2022/10/21 01:32:20;;;;;;;4.53;1.90;;;17.30;49.60;;;;;;5064795;28;20196;-86
2022/10/21 01:35:32;;;;;;;4.20;1.67;;;17.30;51.20;;;;;;5043643;28;20168;-85
2022/10/21 01:38:20;;;;;;;6.50;1.93;;;17.40;49.50;;;;;;5045810;28;20207;-87
2022/10/21 01:41:02;;;;;;;4.33;1.73;;;17.40;48.90;;;;;;5061590;28;20179;-85
2022/10/21 01:44:13;;;;;;;4.67;1.93;;;17.50;47.80;;;;;;5061867;28;20179;-86
2022/10/21 01:46:50;;;;;;;4.97;2.10;;;17.50;46.30;;;;;;5062551;28;20211;-85
2022/10/21 01:49:32;;;;;;;4.50;1.57;;;17.60;44.50;;;;;;5076799;28;20180;-84
2022/10/21 01:52:00;;;;;;;5.07;1.90;;;17.60;42.60;;;;;;5034557;28;20176;-85
2022/10/21 01:54:32;;;;;;;4.60;1.87;;;17.60;40.50;;;;;;5031632;28;20230;-84
2022/10/21 01:57:00;;;;;;;5.47;2.00;;;17.60;40.70;;;;;;5050879;28;20193;-85
2022/10/21 01:59:30;;;;;;;5.37;1.90;;;17.70;40.50;;;;;;5033616;28;20267;-85
2022/10/21 02:02:01;;;;;;;6.07;2.13;;;17.70;37.00;;;;;;5047799;28;20173;-86
2022/10/21 02:04:31;;;;;;;4.43;2.03;;;17.70;33.90;;;;;;5049735;28;20172;-85
2022/10/21 02:06:59;;;;;;;4.60;2.60;;;17.80;33.40;;;;;;5047636;28;20242;-88
2022/10/21 02:09:26;;;;;;;5.83;2.00;;;17.60;36.70;;;;;;5062353;28;20339;-85
2022/10/21 02:11:57;;;;;;;5.77;2.20;;;17.70;36.90;;;;;;5063793;28;20666;-85
2022/10/21 02:14:38;;;;;;;6.97;2.23;;;17.60;38.50;;;;;;5046877;28;20161;-85
2022/10/21 02:17:05;;;;;;;5.17;2.17;;;17.50;42.70;;;;;;5043189;28;20164;-86
2022/10/21 02:19:35;;;;;;;5.57;2.40;;;17.40;43.80;;;;;;5039830;28;20718;-85
2022/10/21 02:22:23;;;;;;;5.50;2.13;;;17.30;45.90;;;;;;5071862;28;20672;-85
2022/10/21 02:25:19;;;;;;;4.07;2.07;;;17.30;49.70;;;;;;5072386;28;20192;-84
2022/10/21 02:27:47;;;;;;;7.00;2.50;;;17.30;50.10;;;;;;5054044;28;20331;-86
2022/10/21 02:30:13;;;;;;;5.97;2.27;;;17.20;50.00;;;;;;5057511;28;20570;-85
2022/10/21 02:32:49;;;;;;;5.97;2.20;;;17.30;51.70;;;;;;5054028;28;20178;-86
2022/10/21 02:35:53;;;;;;;5.20;2.40;;;17.30;50.30;;;;;;5050842;28;20200;-87
2022/10/21 02:38:42;;;;;;;7.23;2.37;;;17.20;51.30;;;;;;5049252;28;20175;-85
2022/10/21 02:41:15;;;;;;;5.60;2.37;;;17.10;55.10;;;;;;5051828;28;20189;-86
2022/10/21 02:44:14;;;;;;;5.97;2.17;;;17.10;55.30;;;;;;5048943;28;20183;-85
2022/10/21 02:46:49;;;;;;;7.33;2.00;;;17.20;52.50;;;;;;4996493;28;20196;-85
2022/10/21 02:49:16;;;;;;;5.93;2.17;;;17.20;52.70;;;;;;5051753;28;20173;-85
2022/10/21 02:51:44;;;;;;;6.27;2.20;;;17.20;52.20;;;;;;5038373;28;20187;-87
2022/10/21 02:54:12;;;;;;;4.83;2.03;;;17.10;53.80;;;;;;5034229;28;20263;-85
2022/10/21 02:56:38;;;;;;;4.23;2.10;;;17.10;54.60;;;;;;5053169;28;20177;-85
2022/10/21 02:59:04;;;;;;;3.47;2.10;;;17.10;55.10;;;;;;5054255;28;20176;-85
2022/10/21 03:01:29;;;;;;;4.23;2.20;;;17.20;56.90;;;;;;5070657;28;20185;-85
2022/10/21 03:03:56;;;;;;;5.43;1.80;;;17.10;56.10;;;;;;5069701;28;20531;-85
2022/10/21 03:06:25;;;;;;;7.53;2.17;;;17.10;55.50;;;;;;5053640;28;20205;-84
2022/10/21 03:08:50;;;;;;;6.20;2.40;;;17.20;54.50;;;;;;5053252;28;20194;-85
2022/10/21 03:11:19;;;;;;;4.87;2.07;;;17.10;54.00;;;;;;5071705;28;20162;-85
2022/10/21 03:13:49;;;;;;;5.00;2.03;;;17.20;53.20;;;;;;5060530;28;20157;-84
2022/10/21 03:16:19;;;;;;;6.60;2.00;;;17.20;53.60;;;;;;5061443;28;20172;-84
2022/10/21 03:18:49;;;;;;;5.07;2.03;;;17.20;52.90;;;;;;5061438;28;20176;-83
2022/10/21 03:21:15;;;;;;;4.97;1.70;;;17.20;51.90;;;;;;5077175;28;20285;-85
2022/10/21 03:23:53;;;;;;;4.37;2.00;;;17.10;53.10;;;;;;5075473;28;20164;-86
2022/10/21 03:26:22;;;;;;;6.70;2.47;;;17.10;55.10;;;;;;5058884;28;20270;-85
2022/10/21 03:28:49;;;;;;;4.40;2.00;;;17.10;55.40;;;;;;5057092;28;20167;-85
2022/10/21 03:31:24;;;;;;;4.37;2.00;;;17.20;54.40;;;;;;5052890;28;20175;-86
2022/10/21 03:33:56;;;;;;;4.07;1.47;;;17.20;53.20;;;;;;5071950;28;20164;-86
2022/10/21 03:36:29;;;;;;;3.87;2.10;;;17.20;53.40;;;;;;5068024;28;20313;-83
2022/10/21 03:38:58;;;;;;;4.87;2.20;;;17.30;53.00;;;;;;5056006;28;20181;-87
2022/10/21 03:41:27;;;;;;;5.43;1.73;;;17.30;51.90;;;;;;5042908;28;20168;-85
2022/10/21 03:43:54;;;;;;;6.23;1.83;;;17.30;51.10;;;;;;5051749;28;20186;-85
2022/10/21 03:46:21;;;;;;;5.03;1.97;;;17.30;50.50;;;;;;5060189;28;20220;-85
2022/10/21 03:48:47;;;;;;;5.60;2.13;;;17.10;53.80;;;;;;5050752;28;20281;-87
2022/10/21 03:51:15;;;;;;;6.73;2.20;;;17.10;55.80;;;;;;5047279;28;20183;-85
2022/10/21 03:53:56;;;;;;;5.20;2.07;;;17.00;56.50;;;;;;5050570;28;20214;-83
2022/10/21 03:56:27;;;;;;;5.07;1.80;;;17.00;58.30;;;;;;5033376;28;20207;-81
2022/10/21 03:58:56;;;;;;;5.83;2.13;;;17.00;58.50;;;;;;5039134;28;20207;-84
2022/10/21 04:01:22;;;;;;;4.70;2.00;;;17.00;59.40;;;;;;5054412;28;20173;-83
2022/10/21 04:03:47;;;;;;;4.97;2.37;;;16.90;60.60;;;;;;5057655;28;20246;-82
2022/10/21 04:06:14;;;;;;;3.33;2.20;;;16.90;62.80;;;;;;5078621;28;20194;-81
2022/10/21 04:08:40;;;;;;;6.40;2.23;;;17.00;62.70;;;;;;5060308;28;20175;-83
2022/10/21 04:11:07;;;;;;;4.73;2.03;;;17.00;62.50;;;;;;5046492;28;20637;-83
2022/10/21 04:13:33;;;;;;;3.93;2.27;;;17.00;60.90;;;;;;5064313;28;20192;-82
2022/10/21 04:16:19;;;;;;;4.27;2.60;;;17.10;59.80;;;;;;5079528;28;20173;-82
2022/10/21 04:18:47;;;;;;;5.73;2.20;;;17.10;58.90;;;;;;5057135;28;20244;-83
2022/10/21 04:21:17;;;;;;;5.60;2.50;;;17.00;59.60;;;;;;5052011;28;20231;-82
2022/10/21 04:23:48;;;;;;;5.13;2.67;;;17.00;60.00;;;;;;5025021;28;20188;-84
2022/10/21 04:26:16;;;;;;;4.97;2.23;;;17.10;59.10;;;;;;5052770;28;20214;-82
2022/10/21 04:28:56;;;;;;;5.53;2.53;;;17.20;57.30;;;;;;5067558;28;20176;-84
2022/10/21 04:31:27;;;;;;;7.50;2.60;;;17.10;58.10;;;;;;5057028;28;20192;-84
2022/10/21 04:33:56;;;;;;;6.27;2.63;;;17.00;62.00;;;;;;5059636;28;20165;-84
2022/10/21 04:36:31;;;;;;;6.13;3.07;;;17.00;62.60;;;;;;5073015;28;20149;-84
2022/10/21 04:39:00;;;;;;;7.17;3.20;;;16.90;63.10;;;;;;5079590;28;20170;-85
2022/10/21 04:41:28;;;;;;;6.43;3.20;;;17.00;63.20;;;;;;5058266;28;20169;-85
2022/10/21 04:44:17;;;;;;;6.20;3.43;;;16.90;66.10;;;;;;5057755;28;20202;-85
2022/10/21 04:46:53;;;;;;;7.70;3.10;;;16.80;71.60;;;;;;5078820;28;20259;-83
2022/10/21 04:49:19;;;;;;;7.83;3.30;;;16.80;77.50;;;;;;5062577;28;20270;-85
2022/10/21 04:51:51;;;;;;;6.30;2.60;;;16.60;79.70;;;;;;5030370;28;20179;-85
2022/10/21 04:54:24;;;;;;;9.00;3.10;;;16.50;84.30;;;;;;5061142;28;20192;-85
2022/10/21 04:57:06;;;;;;;8.03;3.27;;;16.40;90.20;;;;;;5078020;28;20170;-85
2022/10/21 04:59:39;;;;;;;7.00;3.03;;;16.50;90.50;;;;;;5043296;28;20243;-84
2022/10/21 05:02:09;;;;;;;11.03;3.57;;;16.50;90.00;;;;;;5076385;28;20196;-86
2022/10/21 05:04:34;;;;;;;7.63;3.13;;;16.60;89.00;;;;;;5042713;28;20172;-87
2022/10/21 05:07:00;;;;;;;6.73;3.30;;;16.50;89.50;;;;;;5039421;28;20173;-86
2022/10/21 05:09:26;;;;;;;7.43;3.43;;;16.50;91.50;;;;;;5039185;28;20171;-85
2022/10/21 05:11:53;;;;;;;6.40;3.00;;;16.50;92.10;;;;;;5057035;28;20578;-86
2022/10/21 05:14:19;;;;;;;7.77;3.37;;;16.50;92.40;;;;;;5057023;28;20305;-85
2022/10/21 05:16:45;;;;;;;5.93;3.17;;;16.50;92.70;;;;;;5057483;28;20199;-84
2022/10/21 05:19:12;;;;;;;6.80;2.60;;;16.50;92.40;;;;;;5038913;28;20176;-85
2022/10/21 05:21:38;;;;;;;7.10;2.90;;;16.50;92.40;;;;;;5038846;28;20182;-86
2022/10/21 05:24:04;;;;;;;7.13;2.87;;;16.50;92.60;;;;;;5056401;28;20221;-86
2022/10/21 05:26:29;;;;;;;8.40;3.00;;;16.50;93.10;;;;;;5038996;28;20288;-85
2022/10/21 05:28:56;;;;;;;8.70;3.00;;;16.60;92.90;;;;;;5038689;28;20183;-84
2022/10/21 05:31:22;;;;;;;9.03;5.67;;;16.60;93.30;;;;;;5057669;28;20190;-83
2022/10/21 05:33:48;;;;;;;7.33;3.60;;;16.60;93.40;;;;;;5063575;28;20244;-84
2022/10/21 05:36:18;;;;;;;8.17;3.03;;;16.50;94.10;;;;;;5042245;28;20180;-84
2022/10/21 05:38:44;;;;;;;6.10;2.70;;;16.70;94.60;;;;;;5038477;28;20215;-83
2022/10/21 05:41:10;;;;;;;6.80;2.90;;;16.60;94.80;;;;;;5042381;28;20258;-85
2022/10/21 05:44:07;;;;;;;7.50;2.47;;;16.60;95.30;;;;;;5045950;28;20665;-84
2022/10/21 05:46:33;;;;;;;5.57;2.70;;;16.70;95.30;;;;;;5062581;28;20212;-86
2022/10/21 05:48:59;;;;;;;5.63;2.87;;;16.80;94.90;;;;;;5041608;28;20174;-86
2022/10/21 05:51:25;;;;;;;5.97;2.77;;;16.80;95.40;;;;;;5039963;28;20200;-87
2022/10/21 05:53:55;;;;;;;8.00;3.10;;;16.80;95.80;;;;;;5040687;28;20635;-86
2022/10/21 05:56:28;;;;;;;6.53;3.23;;;16.90;96.30;;;;;;5058844;28;20244;-85
2022/10/21 05:58:56;;;;;;;5.80;2.60;;;16.90;95.90;;;;;;5060593;28;20257;-88
2022/10/21 06:01:32;;;;;;;7.07;2.70;;;17.00;95.50;;;;;;5058228;28;20157;-89
2022/10/21 06:04:03;;;;;;;7.60;3.20;;;16.90;95.40;;;;;;5074965;28;20150;-88
2022/10/21 06:06:40;;;;;;;5.23;2.70;;;16.90;95.70;;;;;;5039227;28;20211;-85
2022/10/21 06:09:07;;;;;;;7.60;3.00;;;16.90;96.10;;;;;;5016933;28;20204;-87
2022/10/21 06:11:36;;;;;;;7.97;3.07;;;16.80;97.50;;;;;;5054797;28;20196;-87
2022/10/21 06:14:22;;;;;;;9.13;3.87;;;16.80;98.80;;;;;;5057607;28;20169;-88
2022/10/21 06:16:47;;;;;;;6.00;3.20;;;16.80;99.60;;;;;;5058240;28;20170;-89
2022/10/21 06:19:13;;;;;;;5.73;3.00;;;17.00;98.80;;;;;;5055039;28;20161;-88
2022/10/21 06:21:39;;;;;;;12.23;3.33;;;17.00;98.30;;;;;;5039033;28;20205;-88
2022/10/21 06:24:04;;;;;;;8.07;3.47;;;17.00;97.70;;;;;;5056577;28;20252;-85
2022/10/21 06:26:31;;;;;;;8.83;3.50;;;17.00;97.80;;;;;;5039348;28;20224;-86
2022/10/21 06:28:57;;;;;;;11.33;3.40;;;17.00;97.40;;;;;;5038524;28;20289;-86
2022/10/21 06:31:24;;;;;;;8.63;3.73;;;17.00;97.80;;;;;;5021282;28;20216;-86
2022/10/21 06:33:49;;;;;;;7.27;3.23;;;17.00;97.80;;;;;;5041079;28;20177;-87
2022/10/21 06:36:15;;;;;;;11.33;3.70;;;17.00;98.60;;;;;;5043425;28;20543;-85
2022/10/21 06:38:43;;;;;;;12.77;4.23;;;16.90;99.90;;;;;;5053548;28;20169;-84
2022/10/21 06:41:11;;;;;;;9.97;4.20;;;16.90;99.90;;;;;;5060251;28;20185;-86
2022/10/21 06:43:37;;;;;;;9.93;3.57;;;16.90;99.90;;;;;;5077973;28;20172;-85
2022/10/21 06:46:05;;;;;;;6.63;3.00;;;16.70;99.90;;;;;;5059154;28;20215;-85
2022/10/21 06:48:33;;;;;;;11.37;3.73;;;16.70;99.90;;;;;;5054888;28;20171;-87
2022/10/21 06:51:09;;;;;;;7.20;3.20;;;16.70;99.90;;;;;;5052609;28;20187;-87
2022/10/21 06:53:58;;;;;;;9.10;3.40;;;16.70;99.90;;;;;;5040376;28;20316;-86
2022/10/21 06:56:25;;;;;;;8.37;3.90;;;16.70;99.90;;;;;;5039755;28;20169;-84
2022/10/21 06:58:51;;;;;;;10.40;4.20;;;16.70;99.90;;;;;;5041502;28;20176;-86
2022/10/21 07:01:24;;;;;;;8.83;4.80;;;16.70;99.90;;;;;;5042980;28;20204;-88
2022/10/21 07:03:51;;;;;;;11.73;4.77;;;16.80;99.90;;;;;;5051168;28;20181;-86
2022/10/21 07:06:17;;;;;;;12.40;4.73;;;16.90;99.90;;;;;;5064674;28;20212;-87
2022/10/21 07:08:43;;;;;;;13.00;5.20;;;17.00;99.90;;;;;;5024019;28;20237;-87
2022/10/21 07:11:11;;;;;;;12.17;6.00;;;16.90;99.90;;;;;;5042391;28;20181;-88
2022/10/21 07:13:38;;;;;;;16.23;7.67;;;17.00;99.90;;;;;;5038476;28;20540;-87
2022/10/21 07:16:07;;;;;;;17.40;8.27;;;17.10;99.90;;;;;;5038216;28;20186;-86
2022/10/21 07:18:34;;;;;;;19.03;7.57;;;17.20;99.90;;;;;;5055618;28;20248;-86
2022/10/21 07:21:05;;;;;;;17.27;7.33;;;17.20;99.90;;;;;;5056969;28;20186;-86
2022/10/21 07:23:30;;;;;;;12.63;6.33;;;17.30;99.90;;;;;;5038651;28;20634;-87
2022/10/21 07:25:56;;;;;;;19.07;6.00;;;17.30;99.90;;;;;;5039526;28;20212;-87
2022/10/21 07:28:22;;;;;;;13.67;6.23;;;17.30;99.90;;;;;;5038154;28;20262;-87
2022/10/21 07:30:48;;;;;;;11.90;5.27;;;17.30;99.90;;;;;;5060670;28;20181;-84
2022/10/21 07:33:13;;;;;;;7.17;4.40;;;17.20;99.90;;;;;;5055586;28;20183;-87
2022/10/21 07:35:39;;;;;;;9.73;3.97;;;17.10;99.90;;;;;;5060815;28;20180;-85
2022/10/21 07:38:05;;;;;;;9.83;3.97;;;17.10;99.90;;;;;;5076918;28;20177;-84
2022/10/21 07:40:39;;;;;;;7.67;3.40;;;17.10;99.90;;;;;;5056329;28;20184;-86
2022/10/21 07:43:09;;;;;;;7.77;3.73;;;17.10;99.90;;;;;;5050673;28;20179;-85
2022/10/21 07:45:41;;;;;;;13.83;3.30;;;17.10;99.90;;;;;;5061847;28;20197;-85
2022/10/21 07:48:14;;;;;;;6.80;3.33;;;17.10;99.90;;;;;;5039548;28;20176;-86
2022/10/21 07:50:49;;;;;;;4.43;2.80;;;17.20;99.90;;;;;;5023227;28;20184;-85
2022/10/21 07:53:16;;;;;;;7.33;2.90;;;17.20;99.90;;;;;;5056405;28;20179;-85
2022/10/21 07:55:42;;;;;;;7.13;2.70;;;17.30;99.90;;;;;;5058916;28;20170;-83
2022/10/21 07:58:07;;;;;;;5.40;2.63;;;17.30;99.60;;;;;;5059267;28;20184;-85
2022/10/21 08:00:33;;;;;;;7.10;3.30;;;17.30;99.10;;;;;;5059259;28;20188;-83
2022/10/21 08:02:59;;;;;;;8.80;3.17;;;17.50;98.70;;;;;;5056580;28;20187;-86
2022/10/21 08:05:25;;;;;;;11.00;4.07;;;17.60;96.50;;;;;;5069654;28;20213;-88
2022/10/21 08:07:51;;;;;;;9.63;3.27;;;17.60;94.80;;;;;;5047022;28;20199;-89
2022/10/21 08:10:39;;;;;;;6.97;3.30;;;17.60;94.50;;;;;;5052318;28;20180;-85
2022/10/21 08:13:07;;;;;;;9.40;5.07;;;17.60;94.10;;;;;;5072185;28;20161;-86
2022/10/21 08:15:35;;;;;;;6.40;3.10;;;17.80;93.60;;;;;;5074774;28;20170;-85
2022/10/21 08:18:07;;;;;;;7.20;3.30;;;17.80;92.30;;;;;;5054117;28;20185;-87
2022/10/21 08:20:39;;;;;;;6.03;2.70;;;17.90;91.40;;;;;;5047693;28;20173;-86
2022/10/21 08:23:25;;;;;;;8.17;3.53;;;17.90;89.40;;;;;;5061823;28;20181;-87
2022/10/21 08:25:55;;;;;;;6.10;3.17;;;17.90;87.70;;;;;;5066887;28;20209;-88
2022/10/21 08:28:24;;;;;;;6.53;2.40;;;17.90;84.60;;;;;;5048220;28;20186;-86
2022/10/21 08:30:52;;;;;;;5.47;2.60;;;18.00;82.50;;;;;;5045096;28;20185;-86
2022/10/21 08:33:26;;;;;;;6.70;2.50;;;17.90;80.00;;;;;;5048181;28;20187;-87
2022/10/21 08:35:56;;;;;;;5.53;2.50;;;17.90;79.00;;;;;;5070859;28;20188;-86
2022/10/21 08:38:21;;;;;;;5.57;2.17;;;17.90;79.90;;;;;;5050798;28;20177;-86
2022/10/21 08:40:49;;;;;;;4.03;2.60;;;17.80;77.80;;;;;;5046700;28;20170;-87
2022/10/21 08:43:25;;;;;;;5.87;2.20;;;17.90;74.30;;;;;;5062357;28;20170;-87
2022/10/21 08:45:58;;;;;;;8.17;2.53;;;17.90;71.90;;;;;;5046888;28;20207;-85
2022/10/21 08:48:37;;;;;;;7.97;2.30;;;17.90;73.50;;;;;;5046515;28;20404;-86
2022/10/21 08:51:05;;;;;;;7.33;2.13;;;17.90;72.10;;;;;;5030135;28;20400;-86
2022/10/21 08:53:38;;;;;;;6.00;2.00;;;17.90;60.50;;;;;;5047257;28;20176;-86
2022/10/21 08:56:14;;;;;;;7.10;1.90;;;18.10;51.40;;;;;;5044719;28;20208;-86
2022/10/21 08:58:42;;;;;;;4.67;1.93;;;18.00;46.90;;;;;;5047823;28;20185;-87
2022/10/21 09:01:31;;;;;;;3.43;1.43;;;18.10;42.60;;;;;;5046515;28;20196;-87
2022/10/21 09:04:12;;;;;;;5.07;2.43;;;18.10;39.30;;;;;;5048675;28;20164;-86
2022/10/21 09:06:58;;;;;;;9.13;1.80;;;18.00;35.40;;;;;;5046712;28;20250;-87
2022/10/21 09:09:59;;;;;;;3.73;1.30;;;18.10;32.70;;;;;;5050603;28;20178;-86
2022/10/21 09:13:04;;;;;;;4.10;1.57;;;18.20;28.60;;;;;;5052489;28;20169;-85
2022/10/21 09:16:02;;;;;;;4.63;1.40;;;18.30;26.40;;;;;;5080299;28;20160;-86
2022/10/21 09:18:54;;;;;;;2.83;1.13;;;18.30;27.30;;;;;;5062947;28;20177;-86
2022/10/21 09:22:11;;;;;;;3.67;1.10;;;18.30;24.20;;;;;;5061837;28;20169;-87
2022/10/21 09:25:02;;;;;;;5.70;1.53;;;18.30;22.40;;;;;;5037597;28;20246;-84
2022/10/21 09:27:30;;;;;;;3.43;1.10;;;18.30;21.50;;;;;;5045190;28;20633;-88
2022/10/21 09:30:00;;;;;;;2.50;1.30;;;18.30;22.80;;;;;;5060655;28;20169;-87
2022/10/21 09:32:38;;;;;;;3.17;1.30;;;18.40;22.40;;;;;;5026105;28;20173;-82
2022/10/21 09:35:29;;;;;;;7.47;1.20;;;18.40;22.40;;;;;;5078296;28;20168;-85
2022/10/21 09:38:43;;;;;;;2.90;1.20;;;18.40;22.20;;;;;;5052099;28;20172;-86
2022/10/21 09:41:18;;;;;;;8.70;1.23;;;18.50;21.10;;;;;;5054065;28;20169;-86
2022/10/21 09:43:55;;;;;;;2.27;1.17;;;18.50;22.50;;;;;;5045823;28;20199;-84
2022/10/21 09:46:30;;;;;;;4.10;1.50;;;18.50;23.90;;;;;;5055296;28;20225;-86
2022/10/21 09:48:58;;;;;;;3.90;1.40;;;18.70;21.90;;;;;;5079635;28;20158;-85
2022/10/21 09:51:52;;;;;;;3.43;1.00;;;18.80;20.10;;;;;;5023722;28;20193;-85
2022/10/21 09:54:24;;;;;;;2.00;1.00;;;19.00;18.10;;;;;;5045631;28;20181;-86
2022/10/21 09:56:57;;;;;;;3.80;1.10;;;18.90;19.60;;;;;;5039881;28;20173;-86
2022/10/21 09:59:24;;;;;;;5.37;1.00;;;18.90;20.00;;;;;;5039137;28;20666;-85
2022/10/21 10:01:50;;;;;;;4.87;1.40;;;18.90;22.40;;;;;;5039582;28;20178;-84
2022/10/21 10:04:29;;;;;;;4.00;0.90;;;19.00;24.40;;;;;;5038926;28;20656;-86
2022/10/21 10:06:57;;;;;;;6.20;1.27;;;19.00;23.70;;;;;;5039688;28;20211;-85
2022/10/21 10:09:28;;;;;;;4.67;1.50;;;19.20;20.50;;;;;;5038810;28;20176;-86
2022/10/21 10:12:01;;;;;;;8.27;1.63;;;19.20;18.00;;;;;;5024922;28;20188;-84
2022/10/21 10:14:33;;;;;;;5.63;1.10;;;19.20;17.80;;;;;;5042853;28;20230;-83
2022/10/21 10:17:30;;;;;;;3.90;1.23;;;19.40;14.60;;;;;;5057243;28;20190;-87
2022/10/21 10:20:12;;;;;;;3.63;1.43;;;19.50;13.70;;;;;;5040364;28;20176;-85
2022/10/21 10:22:42;;;;;;;5.80;3.03;;;19.50;12.10;;;;;;5057520;28;20203;-86
2022/10/21 10:25:12;;;;;;;5.30;1.27;;;19.40;16.70;;;;;;5024425;28;20211;-86
2022/10/21 10:28:16;;;;;;;4.23;1.70;;;19.30;19.60;;;;;;5060649;28;20168;-88
2022/10/21 10:30:41;;;;;;;3.17;1.30;;;19.40;20.00;;;;;;5044263;28;20636;-84
2022/10/21 10:33:14;;;;;;;2.70;1.00;;;19.30;19.80;;;;;;5040350;28;20181;-86
2022/10/21 10:35:47;;;;;;;2.73;1.13;;;19.40;20.00;;;;;;5038888;28;20183;-83
2022/10/21 10:38:38;;;;;;;3.70;1.70;;;19.40;19.90;;;;;;5041787;28;20180;-86
2022/10/21 10:41:06;;;;;;;5.70;1.70;;;19.30;23.80;;;;;;5044775;28;20199;-86
2022/10/21 10:43:36;;;;;;;6.00;1.80;;;19.30;24.50;;;;;;5042255;28;20543;-85
2022/10/21 10:46:06;;;;;;;6.33;1.73;;;19.30;26.20;;;;;;5040497;28;20215;-87
2022/10/21 10:48:44;;;;;;;5.10;1.50;;;19.30;24.90;;;;;;5039993;28;20172;-87
2022/10/21 10:51:24;;;;;;;4.47;1.90;;;19.40;22.00;;;;;;5038323;28;20271;-86
2022/10/21 10:54:05;;;;;;;6.67;1.60;;;19.40;24.10;;;;;;5042748;28;20206;-87
2022/10/21 10:56:38;;;;;;;3.53;1.80;;;19.60;23.40;;;;;;5060081;28;20171;-86
2022/10/21 10:59:21;;;;;;;6.93;1.80;;;19.50;24.00;;;;;;5060286;28;20168;-86
2022/10/21 11:02:01;;;;;;;5.53;1.73;;;19.60;23.00;;;;;;5061133;28;20206;-85
2022/10/21 11:05:11;;;;;;;4.50;2.00;;;19.70;22.60;;;;;;5050954;28;20207;-88
2022/10/21 11:07:49;;;;;;;4.67;1.50;;;19.80;19.00;;;;;;5062472;28;20171;-85
2022/10/21 11:10:42;;;;;;;4.93;1.93;;;19.70;17.00;;;;;;5055329;28;20160;-85
2022/10/21 11:13:14;;;;;;;6.20;2.03;;;19.70;17.50;;;;;;5038957;28;20176;-83
2022/10/21 11:15:51;;;;;;;4.73;1.67;;;19.70;16.50;;;;;;5048692;28;20168;-84
2022/10/21 11:18:27;;;;;;;5.40;2.30;;;19.70;17.10;;;;;;5062198;28;20256;-85
2022/10/21 11:21:29;;;;;;;4.13;1.70;;;19.90;12.30;;;;;;5045714;28;20185;-85
2022/10/21 11:24:16;;;;;;;3.97;1.67;;;20.00;4.10;;;;;;5043328;28;20532;-86
2022/10/21 11:26:54;;;;;;;5.90;1.73;;;19.90;2.10;;;;;;5037549;28;20204;-86
2022/10/21 11:29:39;;;;;;;5.23;1.43;;;19.80;4.90;;;;;;5036691;28;20224;-84
2022/10/21 11:32:31;;;;;;;4.77;1.40;;;20.00;3.00;;;;;;5035955;28;20185;-85
2022/10/21 11:35:06;;;;;;;5.20;1.73;;;20.10;1.00;;;;;;5038590;28;20176;-86
2022/10/21 11:38:09;;;;;;;4.33;1.47;;;20.20;1.00;;;;;;5036738;28;20620;-87
2022/10/21 11:40:54;;;;;;;5.30;1.60;;;20.30;1.00;;;;;;5054592;28;20172;-84
2022/10/21 11:43:41;;;;;;;5.70;1.90;;;20.50;1.00;;;;;;5036425;28;20178;-86
2022/10/21 11:46:30;;;;;;;5.20;1.63;;;20.50;1.00;;;;;;5037013;28;20208;-85
2022/10/21 11:49:03;;;;;;;5.53;1.47;;;20.40;1.00;;;;;;5038313;28;20177;-87
2022/10/21 11:51:58;;;;;;;3.07;1.43;;;20.30;1.00;;;;;;5037405;28;20183;-86
2022/10/21 11:54:56;;;;;;;5.20;1.40;;;20.30;1.00;;;;;;5043478;28;20179;-86
2022/10/21 11:57:41;;;;;;;4.73;1.40;;;20.40;1.00;;;;;;5074657;28;20163;-86
2022/10/21 12:00:17;;;;;;;4.63;1.33;;;20.30;1.00;;;;;;5058543;28;20190;-86
2022/10/21 12:03:02;;;;;;;2.17;1.40;;;20.40;1.00;;;;;;5056821;28;20172;-84
2022/10/21 12:05:37;;;;;;;3.57;1.30;;;20.40;1.00;;;;;;5058581;28;20226;-84
2022/10/21 12:08:17;;;;;;;5.33;1.47;;;20.50;1.00;;;;;;5052132;28;20213;-83
2022/10/21 12:14:17;;;;;;;4.43;1.17;;;20.60;1.00;;;;;;5053680;28;20221;-84
2022/10/21 12:16:45;;;;;;;6.00;1.50;;;20.70;1.00;;;;;;5035837;28;20182;-84
2022/10/21 12:19:13;;;;;;;2.50;1.00;;;20.80;1.00;;;;;;5039896;28;20179;-84
2022/10/21 12:21:43;;;;;;;3.33;1.23;;;20.80;1.00;;;;;;5040116;28;20277;-85
2022/10/21 12:24:27;;;;;;;2.83;1.17;;;20.90;1.00;;;;;;5040259;28;20208;-84
2022/10/21 12:27:13;;;;;;;2.97;1.90;;;21.00;1.00;;;;;;5040237;28;20209;-84
2022/10/21 12:29:55;;;;;;;3.13;1.50;;;21.10;1.00;;;;;;5039952;28;20178;-84
2022/10/21 12:32:48;;;;;;;3.00;1.27;;;21.10;1.00;;;;;;5057713;28;20641;-84
2022/10/21 12:35:20;;;;;;;6.23;1.63;;;21.10;1.00;;;;;;5057822;28;20672;-84
2022/10/21 12:37:52;;;;;;;6.30;1.50;;;21.20;1.00;;;;;;5057118;28;20178;-83
2022/10/21 12:40:24;;;;;;;3.13;1.30;;;21.20;1.00;;;;;;5039635;28;20252;-84
2022/10/21 12:43:19;;;;;;;3.43;1.30;;;21.30;1.00;;;;;;5040007;28;20182;-84
2022/10/21 12:45:46;;;;;;;3.07;1.50;;;21.30;1.00;;;;;;5030799;28;20211;-85
2022/10/21 12:48:36;;;;;;;5.10;1.20;;;21.30;1.00;;;;;;5039397;28;20173;-83
2022/10/21 12:51:05;;;;;;;4.23;1.30;;;21.30;1.00;;;;;;5039292;28;20264;-85
2022/10/21 12:53:37;;;;;;;3.10;1.17;;;21.30;1.00;;;;;;5057738;28;20167;-86
2022/10/21 12:56:05;;;;;;;6.63;1.43;;;21.30;1.00;;;;;;5039963;28;20185;-84
2022/10/21 12:58:34;;;;;;;3.50;1.00;;;21.50;1.00;;;;;;5039237;28;20174;-84
2022/10/21 13:01:02;;;;;;;4.17;0.80;;;21.60;1.00;;;;;;5056418;28;20219;-84
2022/10/21 13:03:43;;;;;;;5.53;1.53;;;21.60;1.00;;;;;;5017992;28;20181;-83
2022/10/21 13:06:11;;;;;;;2.83;1.10;;;21.60;1.00;;;;;;5057061;28;20210;-84
2022/10/21 13:09:01;;;;;;;4.83;1.40;;;21.60;1.00;;;;;;5053354;28;20177;-84
2022/10/21 13:12:04;;;;;;;3.73;1.20;;;21.60;1.00;;;;;;5073408;28;20265;-84
2022/10/21 13:15:10;;;;;;;4.43;1.50;;;21.70;1.00;;;;;;5056425;28;20225;-85
2022/10/21 13:17:56;;;;;;;3.30;1.20;;;21.70;1.00;;;;;;5058235;28;20177;-84
2022/10/21 13:20:22;;;;;;;4.03;1.40;;;21.60;1.00;;;;;;5053832;28;20184;-85
2022/10/21 13:22:56;;;;;;;3.17;0.93;;;21.50;1.00;;;;;;5049593;28;20644;-84
2022/10/21 13:25:28;;;;;;;3.90;1.30;;;21.40;1.00;;;;;;5070624;28;20189;-85
2022/10/21 13:28:20;;;;;;;4.57;1.30;;;21.40;1.00;;;;;;5053225;28;20173;-82